sensor_id;sensor_type;location;lat;lon;timestamp;temperature;humidity
23532;DHT22;11943;52.270;20.978;2023-06-26T00:00:12;17.10;99.90
23532;DHT22;11943;52.270;20.978;2023-06-26T00:02:37;17.10;99.90
23532;DHT22;11943;52.270;20.978;2023-06-26T00:05:04;17.00;99.90
23532;DHT22;11943;52.270;20.978;2023-06-26T00:07:30;17.00;99.90
23532;DHT22;11943;52.270;20.978;2023-06-26T00:09:57;17.00;99.90
23532;DHT22;11943;52.270;20.978;2023-06-26T00:12:24;17.00;99.90
23532;DHT22;11943;52.270;20.978;2023-06-26T00:14:49;16.90;99.90
23532;DHT22;11943;52.270;20.978;2023-06-26T00:17:15;17.00;99.90
23532;DHT22;11943;52.270;20.978;2023-06-26T00:19:40;17.00;99.90
23532;DHT22;11943;52.270;20.978;2023-06-26T00:22:06;17.00;99.90
23532;DHT22;11943;52.270;20.978;2023-06-26T00:24:32;17.00;99.90
23532;DHT22;11943;52.270;20.978;2023-06-26T00:26:57;17.00;99.90
23532;DHT22;11943;52.270;20.978;2023-06-26T00:29:24;17.00;99.90
23532;DHT22;11943;52.270;20.978;2023-06-26T00:31:49;17.00;99.90
23532;DHT22;11943;52.270;20.978;2023-06-26T00:34:15;17.00;99.90
23532;DHT22;11943;52.270;20.978;2023-06-26T00:36:41;17.00;99.90
23532;DHT22;11943;52.270;20.978;2023-06-26T00:39:09;17.00;99.90
23532;DHT22;11943;52.270;20.978;2023-06-26T00:41:35;17.00;99.90
23532;DHT22;11943;52.270;20.978;2023-06-26T00:44:01;16.90;99.90
23532;DHT22;11943;52.270;20.978;2023-06-26T00:46:26;16.90;99.90
23532;DHT22;11943;52.270;20.978;2023-06-26T00:48:52;16.90;99.90
23532;DHT22;11943;52.270;20.978;2023-06-26T00:51:19;16.90;99.90
23532;DHT22;11943;52.270;20.978;2023-06-26T00:53:45;16.80;99.90
23532;DHT22;11943;52.270;20.978;2023-06-26T00:56:11;16.80;99.90
23532;DHT22;11943;52.270;20.978;2023-06-26T00:58:37;16.80;99.90
23532;DHT22;11943;52.270;20.978;2023-06-26T01:01:02;16.80;99.90
23532;DHT22;11943;52.270;20.978;2023-06-26T01:03:31;16.70;99.90
23532;DHT22;11943;52.270;20.978;2023-06-26T01:05:59;16.60;99.90
23532;DHT22;11943;52.270;20.978;2023-06-26T01:08:25;16.60;99.90
23532;DHT22;11943;52.270;20.978;2023-06-26T01:10:52;16.50;99.90
23532;DHT22;11943;52.270;20.978;2023-06-26T01:13:18;16.50;99.90
23532;DHT22;11943;52.270;20.978;2023-06-26T01:15:44;16.50;99.90
23532;DHT22;11943;52.270;20.978;2023-06-26T01:18:11;16.50;99.90
23532;DHT22;11943;52.270;20.978;2023-06-26T01:20:38;16.50;99.90
23532;DHT22;11943;52.270;20.978;2023-06-26T01:28:45;16.50;99.90
23532;DHT22;11943;52.270;20.978;2023-06-26T01:31:12;16.50;99.90
23532;DHT22;11943;52.270;20.978;2023-06-26T01:33:40;16.50;99.90
23532;DHT22;11943;52.270;20.978;2023-06-26T01:36:06;16.40;99.90
23532;DHT22;11943;52.270;20.978;2023-06-26T01:38:32;16.40;99.90
23532;DHT22;11943;52.270;20.978;2023-06-26T01:40:58;16.40;99.90
23532;DHT22;11943;52.270;20.978;2023-06-26T01:46:39;16.40;99.90
23532;DHT22;11943;52.270;20.978;2023-06-26T01:49:11;16.30;99.90
23532;DHT22;11943;52.270;20.978;2023-06-26T01:51:50;16.30;99.90
23532;DHT22;11943;52.270;20.978;2023-06-26T01:54:21;16.20;99.90
23532;DHT22;11943;52.270;20.978;2023-06-26T01:56:49;16.20;99.90
23532;DHT22;11943;52.270;20.978;2023-06-26T01:59:19;16.10;99.90
23532;DHT22;11943;52.270;20.978;2023-06-26T02:01:46;16.10;99.90
23532;DHT22;11943;52.270;20.978;2023-06-26T02:04:12;16.10;99.90
23532;DHT22;11943;52.270;20.978;2023-06-26T02:06:38;16.10;99.90
23532;DHT22;11943;52.270;20.978;2023-06-26T02:09:03;16.10;99.90
23532;DHT22;11943;52.270;20.978;2023-06-26T02:11:29;16.10;99.90
23532;DHT22;11943;52.270;20.978;2023-06-26T02:13:55;16.10;99.90
23532;DHT22;11943;52.270;20.978;2023-06-26T02:16:20;16.10;99.90
23532;DHT22;11943;52.270;20.978;2023-06-26T02:18:46;16.10;99.90
23532;DHT22;11943;52.270;20.978;2023-06-26T02:21:12;16.00;99.90
23532;DHT22;11943;52.270;20.978;2023-06-26T02:23:38;15.90;99.90
23532;DHT22;11943;52.270;20.978;2023-06-26T02:26:04;15.90;99.90
23532;DHT22;11943;52.270;20.978;2023-06-26T02:28:29;15.80;99.90
23532;DHT22;11943;52.270;20.978;2023-06-26T02:30:56;15.90;99.90
23532;DHT22;11943;52.270;20.978;2023-06-26T02:33:22;15.90;99.90
23532;DHT22;11943;52.270;20.978;2023-06-26T02:35:48;15.90;99.90
23532;DHT22;11943;52.270;20.978;2023-06-26T02:38:15;15.90;99.90
23532;DHT22;11943;52.270;20.978;2023-06-26T02:40:41;16.00;99.90
23532;DHT22;11943;52.270;20.978;2023-06-26T02:43:06;15.90;99.90
23532;DHT22;11943;52.270;20.978;2023-06-26T02:45:32;16.00;99.90
23532;DHT22;11943;52.270;20.978;2023-06-26T02:47:58;16.00;99.90
23532;DHT22;11943;52.270;20.978;2023-06-26T02:50:23;16.00;99.90
23532;DHT22;11943;52.270;20.978;2023-06-26T02:52:49;16.00;99.90
23532;DHT22;11943;52.270;20.978;2023-06-26T02:55:18;16.00;99.90
23532;DHT22;11943;52.270;20.978;2023-06-26T02:57:44;16.10;99.90
23532;DHT22;11943;52.270;20.978;2023-06-26T03:00:10;16.10;99.90
23532;DHT22;11943;52.270;20.978;2023-06-26T03:02:37;16.10;99.90
23532;DHT22;11943;52.270;20.978;2023-06-26T03:05:02;16.20;99.90
23532;DHT22;11943;52.270;20.978;2023-06-26T03:07:29;16.20;99.90
23532;DHT22;11943;52.270;20.978;2023-06-26T03:09:55;16.30;99.90
23532;DHT22;11943;52.270;20.978;2023-06-26T03:12:21;16.30;99.90
23532;DHT22;11943;52.270;20.978;2023-06-26T03:14:46;16.30;99.90
23532;DHT22;11943;52.270;20.978;2023-06-26T03:17:12;16.30;99.90
23532;DHT22;11943;52.270;20.978;2023-06-26T03:19:38;16.30;99.90
23532;DHT22;11943;52.270;20.978;2023-06-26T03:22:04;16.30;99.90
23532;DHT22;11943;52.270;20.978;2023-06-26T03:24:29;16.30;99.90
23532;DHT22;11943;52.270;20.978;2023-06-26T03:26:55;16.30;99.90
23532;DHT22;11943;52.270;20.978;2023-06-26T03:29:21;16.30;99.90
23532;DHT22;11943;52.270;20.978;2023-06-26T03:31:46;16.40;99.90
23532;DHT22;11943;52.270;20.978;2023-06-26T03:34:12;16.50;99.90
23532;DHT22;11943;52.270;20.978;2023-06-26T03:36:38;16.50;99.90
23532;DHT22;11943;52.270;20.978;2023-06-26T03:39:03;16.50;99.90
23532;DHT22;11943;52.270;20.978;2023-06-26T03:41:29;16.50;99.90
23532;DHT22;11943;52.270;20.978;2023-06-26T03:43:55;16.60;99.90
23532;DHT22;11943;52.270;20.978;2023-06-26T03:46:22;16.70;99.90
23532;DHT22;11943;52.270;20.978;2023-06-26T03:48:48;16.70;99.90
23532;DHT22;11943;52.270;20.978;2023-06-26T03:51:14;16.80;99.90
23532;DHT22;11943;52.270;20.978;2023-06-26T03:53:40;16.90;99.90
23532;DHT22;11943;52.270;20.978;2023-06-26T03:56:06;17.00;99.90
23532;DHT22;11943;52.270;20.978;2023-06-26T03:58:31;17.10;99.90
23532;DHT22;11943;52.270;20.978;2023-06-26T04:00:57;17.20;99.90
23532;DHT22;11943;52.270;20.978;2023-06-26T04:03:23;17.30;99.90
23532;DHT22;11943;52.270;20.978;2023-06-26T04:05:49;17.40;99.90
23532;DHT22;11943;52.270;20.978;2023-06-26T04:08:14;17.50;99.90
23532;DHT22;11943;52.270;20.978;2023-06-26T04:10:40;17.60;99.90
23532;DHT22;11943;52.270;20.978;2023-06-26T04:13:06;17.70;99.90
23532;DHT22;11943;52.270;20.978;2023-06-26T04:15:31;17.70;99.90
23532;DHT22;11943;52.270;20.978;2023-06-26T04:17:57;17.80;99.90
23532;DHT22;11943;52.270;20.978;2023-06-26T04:20:22;17.80;99.90
23532;DHT22;11943;52.270;20.978;2023-06-26T04:22:48;17.80;99.90
23532;DHT22;11943;52.270;20.978;2023-06-26T04:25:14;17.80;99.90
23532;DHT22;11943;52.270;20.978;2023-06-26T04:27:39;17.90;99.90
23532;DHT22;11943;52.270;20.978;2023-06-26T04:30:06;17.90;99.90
23532;DHT22;11943;52.270;20.978;2023-06-26T04:32:31;18.00;99.90
23532;DHT22;11943;52.270;20.978;2023-06-26T04:34:57;18.20;99.90
23532;DHT22;11943;52.270;20.978;2023-06-26T04:37:23;18.50;99.90
23532;DHT22;11943;52.270;20.978;2023-06-26T04:39:50;19.10;99.90
23532;DHT22;11943;52.270;20.978;2023-06-26T04:42:15;20.00;99.90
23532;DHT22;11943;52.270;20.978;2023-06-26T04:44:41;20.60;99.90
23532;DHT22;11943;52.270;20.978;2023-06-26T04:47:08;21.50;99.60
23532;DHT22;11943;52.270;20.978;2023-06-26T04:49:34;22.40;96.70
23532;DHT22;11943;52.270;20.978;2023-06-26T04:51:59;23.00;91.40
23532;DHT22;11943;52.270;20.978;2023-06-26T04:54:25;23.40;85.70
23532;DHT22;11943;52.270;20.978;2023-06-26T04:56:51;23.40;82.90
23532;DHT22;11943;52.270;20.978;2023-06-26T04:59:17;23.20;80.80
23532;DHT22;11943;52.270;20.978;2023-06-26T05:01:42;23.30;81.70
23532;DHT22;11943;52.270;20.978;2023-06-26T05:04:14;22.90;80.80
23532;DHT22;11943;52.270;20.978;2023-06-26T05:06:40;23.10;83.70
23532;DHT22;11943;52.270;20.978;2023-06-26T05:09:06;23.60;80.70
23532;DHT22;11943;52.270;20.978;2023-06-26T05:11:32;24.30;77.70
23532;DHT22;11943;52.270;20.978;2023-06-26T05:13:58;24.70;74.50
23532;DHT22;11943;52.270;20.978;2023-06-26T05:16:23;25.20;71.30
23532;DHT22;11943;52.270;20.978;2023-06-26T05:18:49;25.30;69.70
23532;DHT22;11943;52.270;20.978;2023-06-26T05:21:15;25.40;68.30
23532;DHT22;11943;52.270;20.978;2023-06-26T05:23:42;25.50;66.70
23532;DHT22;11943;52.270;20.978;2023-06-26T05:26:10;25.80;66.00
23532;DHT22;11943;52.270;20.978;2023-06-26T05:28:36;26.30;65.20
23532;DHT22;11943;52.270;20.978;2023-06-26T05:31:03;26.10;62.80
23532;DHT22;11943;52.270;20.978;2023-06-26T05:33:31;26.70;61.50
23532;DHT22;11943;52.270;20.978;2023-06-26T05:36:00;26.70;61.10
23532;DHT22;11943;52.270;20.978;2023-06-26T05:38:28;26.70;59.80
23532;DHT22;11943;52.270;20.978;2023-06-26T05:40:54;27.10;59.90
23532;DHT22;11943;52.270;20.978;2023-06-26T05:43:20;27.20;60.10
23532;DHT22;11943;52.270;20.978;2023-06-26T05:45:47;27.70;59.10
23532;DHT22;11943;52.270;20.978;2023-06-26T05:48:13;27.60;58.20
23532;DHT22;11943;52.270;20.978;2023-06-26T05:50:39;27.40;58.20
23532;DHT22;11943;52.270;20.978;2023-06-26T05:53:07;27.60;57.40
23532;DHT22;11943;52.270;20.978;2023-06-26T05:55:33;27.50;57.70
23532;DHT22;11943;52.270;20.978;2023-06-26T05:58:00;27.90;57.40
23532;DHT22;11943;52.270;20.978;2023-06-26T06:00:27;27.90;55.50
23532;DHT22;11943;52.270;20.978;2023-06-26T06:02:53;27.90;57.00
23532;DHT22;11943;52.270;20.978;2023-06-26T06:05:20;27.80;55.40
23532;DHT22;11943;52.270;20.978;2023-06-26T06:07:47;28.10;56.30
23532;DHT22;11943;52.270;20.978;2023-06-26T06:10:13;27.80;55.70
23532;DHT22;11943;52.270;20.978;2023-06-26T06:12:38;27.30;56.60
23532;DHT22;11943;52.270;20.978;2023-06-26T06:15:05;27.80;57.20
23532;DHT22;11943;52.270;20.978;2023-06-26T06:17:31;27.70;56.50
23532;DHT22;11943;52.270;20.978;2023-06-26T06:19:57;27.80;57.50
23532;DHT22;11943;52.270;20.978;2023-06-26T06:22:23;28.00;56.50
23532;DHT22;11943;52.270;20.978;2023-06-26T06:24:49;28.30;56.30
23532;DHT22;11943;52.270;20.978;2023-06-26T06:27:15;28.50;56.40
23532;DHT22;11943;52.270;20.978;2023-06-26T06:29:41;28.80;53.60
23532;DHT22;11943;52.270;20.978;2023-06-26T06:32:07;28.50;53.50
23532;DHT22;11943;52.270;20.978;2023-06-26T06:34:33;28.10;53.90
23532;DHT22;11943;52.270;20.978;2023-06-26T06:36:58;27.60;54.90
23532;DHT22;11943;52.270;20.978;2023-06-26T06:39:24;26.80;56.10
23532;DHT22;11943;52.270;20.978;2023-06-26T06:41:50;26.50;57.30
23532;DHT22;11943;52.270;20.978;2023-06-26T06:44:15;26.50;58.20
23532;DHT22;11943;52.270;20.978;2023-06-26T06:46:41;26.40;57.70
23532;DHT22;11943;52.270;20.978;2023-06-26T06:49:08;26.20;58.80
23532;DHT22;11943;52.270;20.978;2023-06-26T06:51:34;25.70;59.40
23532;DHT22;11943;52.270;20.978;2023-06-26T06:53:59;25.70;58.10
23532;DHT22;11943;52.270;20.978;2023-06-26T06:56:25;25.70;59.30
23532;DHT22;11943;52.270;20.978;2023-06-26T06:58:50;25.70;57.80
23532;DHT22;11943;52.270;20.978;2023-06-26T07:01:16;25.60;58.60
23532;DHT22;11943;52.270;20.978;2023-06-26T07:03:42;25.70;57.80
23532;DHT22;11943;52.270;20.978;2023-06-26T07:06:07;25.50;58.40
23532;DHT22;11943;52.270;20.978;2023-06-26T07:08:33;25.50;58.00
23532;DHT22;11943;52.270;20.978;2023-06-26T07:10:59;25.70;57.50
23532;DHT22;11943;52.270;20.978;2023-06-26T07:13:25;25.90;57.40
23532;DHT22;11943;52.270;20.978;2023-06-26T07:15:51;25.80;57.30
23532;DHT22;11943;52.270;20.978;2023-06-26T07:18:16;25.80;56.60
23532;DHT22;11943;52.270;20.978;2023-06-26T07:20:42;26.00;56.10
23532;DHT22;11943;52.270;20.978;2023-06-26T07:23:08;26.10;55.50
23532;DHT22;11943;52.270;20.978;2023-06-26T07:25:34;26.20;55.80
23532;DHT22;11943;52.270;20.978;2023-06-26T07:28:00;26.00;55.40
23532;DHT22;11943;52.270;20.978;2023-06-26T07:30:26;26.10;56.10
23532;DHT22;11943;52.270;20.978;2023-06-26T07:32:51;26.00;56.60
23532;DHT22;11943;52.270;20.978;2023-06-26T07:35:17;26.20;56.80
23532;DHT22;11943;52.270;20.978;2023-06-26T07:37:42;26.40;56.70
23532;DHT22;11943;52.270;20.978;2023-06-26T07:40:09;26.50;56.30
23532;DHT22;11943;52.270;20.978;2023-06-26T07:42:35;26.50;56.50
23532;DHT22;11943;52.270;20.978;2023-06-26T07:45:07;26.60;55.40
23532;DHT22;11943;52.270;20.978;2023-06-26T07:47:38;26.70;55.50
23532;DHT22;11943;52.270;20.978;2023-06-26T07:50:04;26.30;54.60
23532;DHT22;11943;52.270;20.978;2023-06-26T07:52:29;26.60;55.20
23532;DHT22;11943;52.270;20.978;2023-06-26T07:54:56;26.80;55.60
23532;DHT22;11943;52.270;20.978;2023-06-26T07:57:21;27.00;55.60
23532;DHT22;11943;52.270;20.978;2023-06-26T07:59:47;27.20;55.90
23532;DHT22;11943;52.270;20.978;2023-06-26T08:02:13;26.90;53.70
23532;DHT22;11943;52.270;20.978;2023-06-26T08:04:38;26.70;53.80
23532;DHT22;11943;52.270;20.978;2023-06-26T08:07:04;26.40;54.00
23532;DHT22;11943;52.270;20.978;2023-06-26T08:09:30;26.00;55.30
23532;DHT22;11943;52.270;20.978;2023-06-26T08:11:56;25.70;56.50
23532;DHT22;11943;52.270;20.978;2023-06-26T08:14:22;25.50;57.00
23532;DHT22;11943;52.270;20.978;2023-06-26T08:16:49;25.30;57.60
23532;DHT22;11943;52.270;20.978;2023-06-26T08:19:16;25.20;57.80
23532;DHT22;11943;52.270;20.978;2023-06-26T08:21:46;25.20;58.60
23532;DHT22;11943;52.270;20.978;2023-06-26T08:24:12;25.20;58.50
23532;DHT22;11943;52.270;20.978;2023-06-26T08:26:45;25.30;58.90
23532;DHT22;11943;52.270;20.978;2023-06-26T08:29:11;25.70;59.20
23532;DHT22;11943;52.270;20.978;2023-06-26T08:31:38;25.50;57.60
23532;DHT22;11943;52.270;20.978;2023-06-26T08:34:04;25.60;57.30
23532;DHT22;11943;52.270;20.978;2023-06-26T08:36:31;25.40;58.50
23532;DHT22;11943;52.270;20.978;2023-06-26T08:38:56;25.40;59.20
23532;DHT22;11943;52.270;20.978;2023-06-26T08:41:22;25.40;58.40
23532;DHT22;11943;52.270;20.978;2023-06-26T08:43:48;25.70;58.10
23532;DHT22;11943;52.270;20.978;2023-06-26T08:46:16;26.30;54.90
23532;DHT22;11943;52.270;20.978;2023-06-26T08:48:48;26.70;54.40
23532;DHT22;11943;52.270;20.978;2023-06-26T08:51:16;27.00;54.00
23532;DHT22;11943;52.270;20.978;2023-06-26T08:56:16;27.40;49.60
23532;DHT22;11943;52.270;20.978;2023-06-26T08:58:43;27.70;48.40
23532;DHT22;11943;52.270;20.978;2023-06-26T09:01:09;27.60;48.80
23532;DHT22;11943;52.270;20.978;2023-06-26T09:03:36;28.00;48.30
23532;DHT22;11943;52.270;20.978;2023-06-26T09:06:02;28.10;47.60
23532;DHT22;11943;52.270;20.978;2023-06-26T09:08:27;28.00;47.60
23532;DHT22;11943;52.270;20.978;2023-06-26T09:10:53;28.00;47.60
23532;DHT22;11943;52.270;20.978;2023-06-26T09:13:19;28.20;47.60
23532;DHT22;11943;52.270;20.978;2023-06-26T09:15:45;28.10;47.80
23532;DHT22;11943;52.270;20.978;2023-06-26T09:18:12;27.60;48.50
23532;DHT22;11943;52.270;20.978;2023-06-26T09:20:38;27.80;47.80
23532;DHT22;11943;52.270;20.978;2023-06-26T09:23:04;27.70;47.80
23532;DHT22;11943;52.270;20.978;2023-06-26T09:25:30;27.80;46.80
23532;DHT22;11943;52.270;20.978;2023-06-26T09:27:57;28.00;47.20
23532;DHT22;11943;52.270;20.978;2023-06-26T09:30:23;28.10;47.30
23532;DHT22;11943;52.270;20.978;2023-06-26T09:32:49;28.20;46.40
23532;DHT22;11943;52.270;20.978;2023-06-26T09:35:19;28.30;46.40
23532;DHT22;11943;52.270;20.978;2023-06-26T09:37:45;28.70;45.80
23532;DHT22;11943;52.270;20.978;2023-06-26T09:40:13;28.50;45.00
23532;DHT22;11943;52.270;20.978;2023-06-26T09:42:38;27.90;45.70
23532;DHT22;11943;52.270;20.978;2023-06-26T09:45:04;27.30;46.90
23532;DHT22;11943;52.270;20.978;2023-06-26T09:47:31;26.70;48.00
23532;DHT22;11943;52.270;20.978;2023-06-26T09:50:01;26.40;49.20
23532;DHT22;11943;52.270;20.978;2023-06-26T09:52:27;26.70;50.00
23532;DHT22;11943;52.270;20.978;2023-06-26T09:55:22;26.90;48.40
23532;DHT22;11943;52.270;20.978;2023-06-26T09:57:50;27.50;48.90
23532;DHT22;11943;52.270;20.978;2023-06-26T10:00:16;28.20;47.90
23532;DHT22;11943;52.270;20.978;2023-06-26T10:02:43;28.40;46.70
23532;DHT22;11943;52.270;20.978;2023-06-26T10:05:09;27.90;47.10
23532;DHT22;11943;52.270;20.978;2023-06-26T10:07:35;27.90;47.50
23532;DHT22;11943;52.270;20.978;2023-06-26T10:10:02;27.90;46.30
23532;DHT22;11943;52.270;20.978;2023-06-26T10:12:30;28.10;47.00
23532;DHT22;11943;52.270;20.978;2023-06-26T10:14:57;28.20;46.40
23532;DHT22;11943;52.270;20.978;2023-06-26T10:17:24;28.30;45.40
23532;DHT22;11943;52.270;20.978;2023-06-26T10:19:51;28.40;42.90
23532;DHT22;11943;52.270;20.978;2023-06-26T10:22:20;28.40;41.90
23532;DHT22;11943;52.270;20.978;2023-06-26T10:24:48;28.30;41.30
23532;DHT22;11943;52.270;20.978;2023-06-26T10:27:20;28.30;41.40
23532;DHT22;11943;52.270;20.978;2023-06-26T10:29:52;28.60;41.10
23532;DHT22;11943;52.270;20.978;2023-06-26T10:32:19;28.50;41.40
23532;DHT22;11943;52.270;20.978;2023-06-26T10:34:45;28.60;42.50
23532;DHT22;11943;52.270;20.978;2023-06-26T10:37:12;28.70;41.90
23532;DHT22;11943;52.270;20.978;2023-06-26T10:39:47;28.90;42.30
23532;DHT22;11943;52.270;20.978;2023-06-26T10:42:28;29.00;41.40
23532;DHT22;11943;52.270;20.978;2023-06-26T10:45:19;28.80;40.20
23532;DHT22;11943;52.270;20.978;2023-06-26T10:47:48;28.50;41.40
23532;DHT22;11943;52.270;20.978;2023-06-26T10:50:18;28.80;42.10
23532;DHT22;11943;52.270;20.978;2023-06-26T10:56:02;28.70;42.30
23532;DHT22;11943;52.270;20.978;2023-06-26T10:58:32;28.00;43.40
23532;DHT22;11943;52.270;20.978;2023-06-26T11:01:23;27.50;44.50
23532;DHT22;11943;52.270;20.978;2023-06-26T11:06:27;27.10;46.50
23532;DHT22;11943;52.270;20.978;2023-06-26T11:08:59;27.40;46.40
23532;DHT22;11943;52.270;20.978;2023-06-26T11:14:20;28.30;42.50
23532;DHT22;11943;52.270;20.978;2023-06-26T11:16:46;28.50;42.00
23532;DHT22;11943;52.270;20.978;2023-06-26T11:19:13;28.70;42.30
23532;DHT22;11943;52.270;20.978;2023-06-26T11:21:39;28.90;42.00
23532;DHT22;11943;52.270;20.978;2023-06-26T11:24:09;29.40;41.90
23532;DHT22;11943;52.270;20.978;2023-06-26T11:26:43;29.50;40.90
23532;DHT22;11943;52.270;20.978;2023-06-26T11:29:10;29.20;41.70
23532;DHT22;11943;52.270;20.978;2023-06-26T11:31:37;29.20;42.20
23532;DHT22;11943;52.270;20.978;2023-06-26T11:34:08;29.20;42.10
23532;DHT22;11943;52.270;20.978;2023-06-26T11:36:41;29.00;41.20
23532;DHT22;11943;52.270;20.978;2023-06-26T11:39:08;29.10;40.70
23532;DHT22;11943;52.270;20.978;2023-06-26T11:41:35;29.10;40.80
23532;DHT22;11943;52.270;20.978;2023-06-26T11:44:10;29.10;39.90
23532;DHT22;11943;52.270;20.978;2023-06-26T11:46:36;29.30;37.70
23532;DHT22;11943;52.270;20.978;2023-06-26T11:49:03;29.20;37.80
23532;DHT22;11943;52.270;20.978;2023-06-26T11:51:29;29.00;38.10
23532;DHT22;11943;52.270;20.978;2023-06-26T11:53:55;29.30;40.20
23532;DHT22;11943;52.270;20.978;2023-06-26T11:56:21;29.40;38.60
23532;DHT22;11943;52.270;20.978;2023-06-26T11:59:05;28.80;37.80
23532;DHT22;11943;52.270;20.978;2023-06-26T12:01:42;28.30;39.10
23532;DHT22;11943;52.270;20.978;2023-06-26T12:04:11;27.90;40.70
23532;DHT22;11943;52.270;20.978;2023-06-26T12:06:37;27.60;42.40
23532;DHT22;11943;52.270;20.978;2023-06-26T12:09:05;27.20;42.30
23532;DHT22;11943;52.270;20.978;2023-06-26T12:11:34;26.90;43.30
23532;DHT22;11943;52.270;20.978;2023-06-26T12:13:59;27.00;43.00
23532;DHT22;11943;52.270;20.978;2023-06-26T12:16:28;27.30;43.60
23532;DHT22;11943;52.270;20.978;2023-06-26T12:19:07;27.30;42.50
23532;DHT22;11943;52.270;20.978;2023-06-26T12:24:00;27.10;43.70
23532;DHT22;11943;52.270;20.978;2023-06-26T12:26:27;27.10;44.60
23532;DHT22;11943;52.270;20.978;2023-06-26T12:28:53;27.50;44.10
23532;DHT22;11943;52.270;20.978;2023-06-26T12:31:21;28.00;43.60
23532;DHT22;11943;52.270;20.978;2023-06-26T12:33:48;28.30;42.20
23532;DHT22;11943;52.270;20.978;2023-06-26T12:36:14;28.30;42.50
23532;DHT22;11943;52.270;20.978;2023-06-26T12:38:45;28.60;42.90
23532;DHT22;11943;52.270;20.978;2023-06-26T12:41:14;29.00;42.60
23532;DHT22;11943;52.270;20.978;2023-06-26T12:43:41;29.30;41.80
23532;DHT22;11943;52.270;20.978;2023-06-26T12:46:07;29.30;41.20
23532;DHT22;11943;52.270;20.978;2023-06-26T12:48:39;29.50;41.90
23532;DHT22;11943;52.270;20.978;2023-06-26T12:51:17;30.00;42.50
23532;DHT22;11943;52.270;20.978;2023-06-26T12:53:43;29.70;41.50
23532;DHT22;11943;52.270;20.978;2023-06-26T12:56:10;30.10;39.90
23532;DHT22;11943;52.270;20.978;2023-06-26T12:58:37;29.90;39.90
23532;DHT22;11943;52.270;20.978;2023-06-26T13:01:04;29.90;40.90
23532;DHT22;11943;52.270;20.978;2023-06-26T13:03:31;29.90;40.00
23532;DHT22;11943;52.270;20.978;2023-06-26T13:05:57;29.70;40.00
23532;DHT22;11943;52.270;20.978;2023-06-26T13:08:22;29.70;40.80
23532;DHT22;11943;52.270;20.978;2023-06-26T13:10:48;29.90;40.60
23532;DHT22;11943;52.270;20.978;2023-06-26T13:13:14;29.90;40.10
23532;DHT22;11943;52.270;20.978;2023-06-26T13:15:39;30.20;39.90
23532;DHT22;11943;52.270;20.978;2023-06-26T13:18:05;30.30;38.70
23532;DHT22;11943;52.270;20.978;2023-06-26T13:20:31;30.00;39.40
23532;DHT22;11943;52.270;20.978;2023-06-26T13:22:57;29.90;38.70
23532;DHT22;11943;52.270;20.978;2023-06-26T13:25:22;30.00;38.90
23532;DHT22;11943;52.270;20.978;2023-06-26T13:27:48;30.00;39.40
23532;DHT22;11943;52.270;20.978;2023-06-26T13:30:15;30.10;37.90
23532;DHT22;11943;52.270;20.978;2023-06-26T13:32:42;30.00;39.20
23532;DHT22;11943;52.270;20.978;2023-06-26T13:35:08;29.70;37.90
23532;DHT22;11943;52.270;20.978;2023-06-26T13:37:35;29.30;38.80
23532;DHT22;11943;52.270;20.978;2023-06-26T13:40:01;28.70;38.90
23532;DHT22;11943;52.270;20.978;2023-06-26T13:42:28;28.50;39.80
23532;DHT22;11943;52.270;20.978;2023-06-26T13:44:54;28.50;40.60
23532;DHT22;11943;52.270;20.978;2023-06-26T13:47:21;28.60;41.10
23532;DHT22;11943;52.270;20.978;2023-06-26T13:49:47;28.70;40.50
23532;DHT22;11943;52.270;20.978;2023-06-26T13:52:14;28.90;41.50
23532;DHT22;11943;52.270;20.978;2023-06-26T13:54:40;29.30;40.10
23532;DHT22;11943;52.270;20.978;2023-06-26T13:57:08;29.40;40.70
23532;DHT22;11943;52.270;20.978;2023-06-26T13:59:37;29.60;39.10
23532;DHT22;11943;52.270;20.978;2023-06-26T14:02:02;29.50;39.00
23532;DHT22;11943;52.270;20.978;2023-06-26T14:04:30;29.70;38.40
23532;DHT22;11943;52.270;20.978;2023-06-26T14:06:55;29.40;38.80
23532;DHT22;11943;52.270;20.978;2023-06-26T14:09:21;29.20;40.30
23532;DHT22;11943;52.270;20.978;2023-06-26T14:11:47;29.00;40.10
23532;DHT22;11943;52.270;20.978;2023-06-26T14:14:13;29.00;41.40
23532;DHT22;11943;52.270;20.978;2023-06-26T14:16:39;29.10;40.30
23532;DHT22;11943;52.270;20.978;2023-06-26T14:19:05;29.20;39.20
23532;DHT22;11943;52.270;20.978;2023-06-26T14:21:31;29.20;39.10
23532;DHT22;11943;52.270;20.978;2023-06-26T14:23:58;29.00;38.90
23532;DHT22;11943;52.270;20.978;2023-06-26T14:26:24;28.60;40.50
23532;DHT22;11943;52.270;20.978;2023-06-26T14:28:49;28.40;40.40
23532;DHT22;11943;52.270;20.978;2023-06-26T14:31:15;28.30;41.40
23532;DHT22;11943;52.270;20.978;2023-06-26T14:33:41;28.50;40.20
23532;DHT22;11943;52.270;20.978;2023-06-26T14:36:06;28.50;40.20
23532;DHT22;11943;52.270;20.978;2023-06-26T14:38:32;28.60;40.80
23532;DHT22;11943;52.270;20.978;2023-06-26T14:40:58;28.50;39.80
23532;DHT22;11943;52.270;20.978;2023-06-26T14:43:23;28.20;40.80
23532;DHT22;11943;52.270;20.978;2023-06-26T14:45:49;28.00;40.70
23532;DHT22;11943;52.270;20.978;2023-06-26T14:48:15;28.00;42.00
23532;DHT22;11943;52.270;20.978;2023-06-26T14:50:41;28.30;41.40
23532;DHT22;11943;52.270;20.978;2023-06-26T14:53:06;28.40;40.70
23532;DHT22;11943;52.270;20.978;2023-06-26T14:55:32;28.70;41.00
23532;DHT22;11943;52.270;20.978;2023-06-26T14:57:57;28.90;40.10
23532;DHT22;11943;52.270;20.978;2023-06-26T15:00:23;29.00;40.90
23532;DHT22;11943;52.270;20.978;2023-06-26T15:02:50;29.30;40.10
23532;DHT22;11943;52.270;20.978;2023-06-26T15:05:19;29.30;39.40
23532;DHT22;11943;52.270;20.978;2023-06-26T15:07:45;29.40;39.10
23532;DHT22;11943;52.270;20.978;2023-06-26T15:10:11;29.00;38.40
23532;DHT22;11943;52.270;20.978;2023-06-26T15:12:36;28.70;40.20
23532;DHT22;11943;52.270;20.978;2023-06-26T15:15:03;28.40;40.40
23532;DHT22;11943;52.270;20.978;2023-06-26T15:17:29;28.10;40.90
23532;DHT22;11943;52.270;20.978;2023-06-26T15:19:54;27.70;41.20
23532;DHT22;11943;52.270;20.978;2023-06-26T15:22:22;27.60;42.10
23532;DHT22;11943;52.270;20.978;2023-06-26T15:24:51;27.40;42.10
23532;DHT22;11943;52.270;20.978;2023-06-26T15:27:16;27.30;42.90
23532;DHT22;11943;52.270;20.978;2023-06-26T15:29:43;27.00;43.70
23532;DHT22;11943;52.270;20.978;2023-06-26T15:32:09;27.00;43.80
23532;DHT22;11943;52.270;20.978;2023-06-26T15:34:35;26.90;44.00